National Weather Service United States Department of Commerce


057
FTPA31 PHFO 241129
TAFSTU
TAF
NSTU 241129Z 2412/2512 VRB05KT P6SM VCSH SCT015 BKN040 OVC080
TEMPO 2412/2416 3SM SHRA BR SCT006 BKN015
FM242200 30006KT P6SM VCTS SCT015CB BKN040 OVC080=


892
SAZS31 NSTU 241152
MTRPPG
METAR NSTU 241150Z 00000KT 6SM -SHRA SCT015TCU BKN039 OVC080 24/24
A2977 RMK TCU ALQDS SLP081 60162 70361 8/42/ T02420242 10245 20242
57012=


METAR Formatted Surface Weather Observation  Issued: 11/24/2017 12:11:06 AM SST

NSTU Observation History

 

Significant Weather Charts